Time;durP1;ratioP1;P1;durP2;ratioP2;P2;SDS_P1;SDS_P2;PMS_P1;PMS_P2;Temp;Humidity;BMP_temperature;BMP_pressure;BME280_temperature;BME280_humidity;BME280_pressure;Samples;Min_cycle;Max_cycle;Signal;HPM_P1;HPM_P2
2021/12/14 00:00:09;;;;;;;3.13;2.85;;;;;;;;;;5058723;28;20219;-75
2021/12/14 00:02:36;;;;;;;3.40;2.30;;;;;;;;;;5043581;28;20305;-77
2021/12/14 00:05:04;;;;;;;3.47;2.40;;;;;;;;;;5050270;28;20203;-76
2021/12/14 00:07:31;;;;;;;3.35;2.10;;;;;;;;;;5053406;28;20570;-76
2021/12/14 00:10:12;;;;;;;2.75;2.55;;;;;;;;;;5062803;28;20197;-76
2021/12/14 00:12:54;;;;;;;4.20;2.95;;;;;;;;;;5067164;28;20213;-74
2021/12/14 00:15:22;;;;;;;2.55;2.35;;;;;;;;;;5057943;28;20191;-76
2021/12/14 00:17:50;;;;;;;2.30;2.00;;;;;;;;;;5047852;28;20195;-76
2021/12/14 00:20:20;;;;;;;2.95;1.80;;;;;;;;;;5054774;28;20187;-76
2021/12/14 00:25:36;;;;;;;3.83;2.25;;;;;;;;;;5043562;28;20202;-76
2021/12/14 00:28:07;;;;;;;2.15;1.95;;;;;;;;;;5058337;28;20202;-76
2021/12/14 00:30:35;;;;;;;3.00;2.50;;;;;;;;;;5062361;28;20206;-76
2021/12/14 00:33:03;;;;;;;3.17;2.95;;;;;;;;;;5054093;28;20222;-77
2021/12/14 00:35:30;;;;;;;3.05;2.70;;;;;;;;;;5044112;28;20198;-76
2021/12/14 00:37:58;;;;;;;2.88;2.67;;;;;;;;;;5064427;28;20584;-76
2021/12/14 00:40:26;;;;;;;3.08;2.78;;;;;;;;;;5061293;28;20211;-76
2021/12/14 00:42:54;;;;;;;3.00;2.65;;;;;;;;;;5049007;28;20708;-77
2021/12/14 00:45:23;;;;;;;4.07;2.40;;;;;;;;;;5050760;28;20195;-75
2021/12/14 00:47:51;;;;;;;2.38;2.17;;;;;;;;;;5062436;28;20198;-76
2021/12/14 00:50:20;;;;;;;2.53;2.33;;;;;;;;;;5053190;28;20582;-76
2021/12/14 00:52:47;;;;;;;2.15;1.95;;;;;;;;;;5055831;28;20198;-76
2021/12/14 00:55:18;;;;;;;2.83;2.40;;;;;;;;;;5051296;28;20206;-76
2021/12/14 00:57:45;;;;;;;2.70;2.50;;;;;;;;;;5065922;28;20202;-76
2021/12/14 01:00:14;;;;;;;2.45;2.25;;;;;;;;;;5074593;28;20872;-77
2021/12/14 01:02:43;;;;;;;2.42;2.22;;;;;;;;;;5056227;28;20686;-76
2021/12/14 01:05:13;;;;;;;3.08;2.50;;;;;;;;;;5053774;28;20203;-75
2021/12/14 01:07:40;;;;;;;2.40;2.20;;;;;;;;;;5061623;28;20562;-76
2021/12/14 01:10:10;;;;;;;3.17;2.05;;;;;;;;;;5059001;28;20202;-77
2021/12/14 01:12:43;;;;;;;2.63;2.42;;;;;;;;;;5073950;28;20607;-77
2021/12/14 01:15:24;;;;;;;2.28;2.08;;;;;;;;;;5062142;28;20199;-77
2021/12/14 01:18:02;;;;;;;2.72;2.17;;;;;;;;;;5037963;28;20193;-76
2021/12/14 01:20:35;;;;;;;2.65;2.45;;;;;;;;;;5047937;28;20198;-76
2021/12/14 01:23:12;;;;;;;2.67;2.22;;;;;;;;;;5056093;28;20249;-76
2021/12/14 01:25:40;;;;;;;4.10;1.90;;;;;;;;;;5061872;28;20252;-76
2021/12/14 01:28:09;;;;;;;2.97;2.40;;;;;;;;;;5056287;28;20198;-76
2021/12/14 01:30:42;;;;;;;2.72;2.28;;;;;;;;;;5058420;28;20199;-76
2021/12/14 01:33:13;;;;;;;2.00;1.80;;;;;;;;;;5042325;28;20203;-76
2021/12/14 01:35:45;;;;;;;1.83;1.67;;;;;;;;;;5054360;28;20569;-76
2021/12/14 01:38:21;;;;;;;2.17;1.88;;;;;;;;;;5065376;28;20644;-76
2021/12/14 01:40:56;;;;;;;2.47;2.10;;;;;;;;;;5059369;28;20240;-76
2021/12/14 01:43:25;;;;;;;3.13;2.15;;;;;;;;;;5053085;28;20289;-76
2021/12/14 01:45:52;;;;;;;2.38;1.98;;;;;;;;;;5054564;28;20194;-76
2021/12/14 01:48:21;;;;;;;2.67;2.22;;;;;;;;;;5048338;28;20578;-76
2021/12/14 01:50:50;;;;;;;2.35;2.00;;;;;;;;;;5055013;28;20201;-76
2021/12/14 01:53:20;;;;;;;3.30;2.92;;;;;;;;;;5044307;28;20202;-76
2021/12/14 01:55:52;;;;;;;2.22;1.88;;;;;;;;;;5055869;28;20206;-76
2021/12/14 01:58:21;;;;;;;3.97;2.60;;;;;;;;;;5058784;28;20202;-76
2021/12/14 02:00:52;;;;;;;3.03;2.40;;;;;;;;;;5049873;28;20218;-77
2021/12/14 02:03:21;;;;;;;2.10;1.90;;;;;;;;;;5052713;28;20309;-76
2021/12/14 02:05:49;;;;;;;2.08;1.88;;;;;;;;;;5050652;28;20206;-76
2021/12/14 02:08:18;;;;;;;2.30;1.92;;;;;;;;;;5048457;28;20210;-76
2021/12/14 02:10:45;;;;;;;2.70;2.50;;;;;;;;;;5054373;28;20201;-75
2021/12/14 02:13:12;;;;;;;2.15;1.90;;;;;;;;;;5068571;28;20201;-75
2021/12/14 02:15:41;;;;;;;2.15;1.95;;;;;;;;;;5057151;28;20206;-76
2021/12/14 02:18:09;;;;;;;2.20;2.00;;;;;;;;;;5062698;28;20194;-76
2021/12/14 02:20:38;;;;;;;3.08;2.25;;;;;;;;;;5051498;28;20206;-76
2021/12/14 02:23:09;;;;;;;2.20;2.00;;;;;;;;;;5054221;28;20649;-76
2021/12/14 02:25:37;;;;;;;2.03;1.83;;;;;;;;;;5061531;28;20202;-76
2021/12/14 02:28:05;;;;;;;2.17;1.98;;;;;;;;;;5067831;28;20205;-76
2021/12/14 02:30:33;;;;;;;2.13;1.92;;;;;;;;;;5050029;28;20278;-77
2021/12/14 02:33:00;;;;;;;2.25;2.05;;;;;;;;;;5046385;28;20195;-77
2021/12/14 02:35:29;;;;;;;2.35;1.77;;;;;;;;;;5049926;28;20589;-76
2021/12/14 02:37:58;;;;;;;2.88;2.03;;;;;;;;;;5050113;28;20567;-76
2021/12/14 02:40:53;;;;;;;2.05;1.85;;;;;;;;;;5047348;28;20197;-76
2021/12/14 02:43:19;;;;;;;1.80;1.65;;;;;;;;;;5049339;28;20305;-75
2021/12/14 02:45:46;;;;;;;2.20;2.00;;;;;;;;;;5047285;28;20209;-76
2021/12/14 02:48:13;;;;;;;1.70;1.50;;;;;;;;;;5058933;28;20588;-76
2021/12/14 02:50:41;;;;;;;3.78;2.10;;;;;;;;;;5059919;28;20562;-76
2021/12/14 02:53:08;;;;;;;2.28;1.95;;;;;;;;;;5061789;28;20650;-75
2021/12/14 02:55:36;;;;;;;2.78;2.58;;;;;;;;;;5050384;28;20191;-76
2021/12/14 02:58:05;;;;;;;2.05;1.70;;;;;;;;;;5057621;28;20203;-76
2021/12/14 03:00:34;;;;;;;1.90;1.70;;;;;;;;;;5056327;28;20226;-75
2021/12/14 03:03:02;;;;;;;2.42;2.10;;;;;;;;;;5060797;28;20194;-75
2021/12/14 03:05:30;;;;;;;2.15;1.95;;;;;;;;;;5053943;28;20206;-75
2021/12/14 03:07:59;;;;;;;2.55;2.35;;;;;;;;;;5051063;28;20571;-75
2021/12/14 03:10:39;;;;;;;2.33;2.13;;;;;;;;;;5059427;28;20205;-76
2021/12/14 03:13:09;;;;;;;2.50;2.20;;;;;;;;;;5061443;28;20210;-76
2021/12/14 03:15:45;;;;;;;2.47;2.28;;;;;;;;;;5063454;28;20190;-76
2021/12/14 03:18:14;;;;;;;2.05;1.95;;;;;;;;;;5051947;28;20202;-76
2021/12/14 03:20:55;;;;;;;1.92;1.70;;;;;;;;;;5046995;28;20194;-76
2021/12/14 03:23:24;;;;;;;2.30;2.10;;;;;;;;;;5051877;28;20198;-76
2021/12/14 03:25:53;;;;;;;2.55;1.98;;;;;;;;;;5059675;28;20197;-76
2021/12/14 03:28:23;;;;;;;2.00;1.80;;;;;;;;;;5062008;28;20202;-76
2021/12/14 03:31:00;;;;;;;2.53;2.25;;;;;;;;;;5061136;28;20203;-76
2021/12/14 03:33:29;;;;;;;2.42;2.22;;;;;;;;;;5059739;28;20626;-76
2021/12/14 03:35:57;;;;;;;3.95;2.72;;;;;;;;;;5083007;28;20190;-76
2021/12/14 03:38:32;;;;;;;2.00;1.80;;;;;;;;;;5067210;28;20253;-77
2021/12/14 03:41:01;;;;;;;2.70;2.20;;;;;;;;;;5061300;28;20193;-76
2021/12/14 03:43:30;;;;;;;3.58;1.90;;;;;;;;;;5058023;28;20194;-76
2021/12/14 03:45:57;;;;;;;2.22;2.03;;;;;;;;;;5060375;28;20198;-76
2021/12/14 03:48:26;;;;;;;2.17;1.90;;;;;;;;;;5052768;28;20210;-77
2021/12/14 03:50:53;;;;;;;3.45;1.98;;;;;;;;;;5052651;28;20562;-76
2021/12/14 03:53:21;;;;;;;2.72;2.30;;;;;;;;;;5060532;28;20226;-76
2021/12/14 03:55:49;;;;;;;2.72;2.30;;;;;;;;;;5061522;28;20199;-76
2021/12/14 03:58:18;;;;;;;3.17;2.60;;;;;;;;;;5056330;28;20198;-76
2021/12/14 04:00:48;;;;;;;2.20;2.00;;;;;;;;;;5049500;28;20219;-76
2021/12/14 04:03:16;;;;;;;2.53;2.33;;;;;;;;;;5053874;28;20683;-76
2021/12/14 04:05:44;;;;;;;2.35;2.00;;;;;;;;;;5052518;28;20682;-77
2021/12/14 04:08:11;;;;;;;2.35;2.15;;;;;;;;;;5058640;28;20207;-77
2021/12/14 04:10:39;;;;;;;3.30;2.42;;;;;;;;;;5052965;28;20574;-77
2021/12/14 04:13:14;;;;;;;2.47;2.28;;;;;;;;;;5060730;28;20203;-77
2021/12/14 04:15:42;;;;;;;3.08;2.55;;;;;;;;;;5077893;28;20255;-78
2021/12/14 04:18:10;;;;;;;2.47;1.90;;;;;;;;;;5071136;28;20199;-77
2021/12/14 04:20:39;;;;;;;3.80;2.78;;;;;;;;;;5058430;28;20202;-77
2021/12/14 04:23:09;;;;;;;3.10;2.60;;;;;;;;;;5080664;28;20688;-76
2021/12/14 04:25:37;;;;;;;2.70;2.15;;;;;;;;;;5073388;28;20551;-77
2021/12/14 04:28:06;;;;;;;2.55;2.35;;;;;;;;;;5075513;28;20206;-76
2021/12/14 04:30:35;;;;;;;3.72;3.03;;;;;;;;;;5072451;28;20195;-77
2021/12/14 04:33:05;;;;;;;3.45;3.05;;;;;;;;;;5073364;28;20183;-77
2021/12/14 04:35:34;;;;;;;2.33;2.13;;;;;;;;;;5071539;28;20197;-77
2021/12/14 04:38:09;;;;;;;2.65;2.33;;;;;;;;;;5077606;28;20207;-78
2021/12/14 04:51:56;;;;;;;2.30;2.10;;;;;;;;;;5090698;28;20181;-78
2021/12/14 04:51:58;;;;;;;4.65;2.10;;;;;;;;;;5073588;28;20252;-78
2021/12/14 04:54:25;;;;;;;2.85;2.00;;;;;;;;;;5076548;28;20183;-77
2021/12/14 04:56:52;;;;;;;3.97;2.78;;;;;;;;;;5059585;28;20202;-75
2021/12/14 04:59:23;;;;;;;3.10;2.80;;;;;;;;;;5058413;28;20222;-76
2021/12/14 05:01:50;;;;;;;3.67;3.35;;;;;;;;;;5060072;28;20217;-76
2021/12/14 05:04:20;;;;;;;2.35;2.15;;;;;;;;;;5047570;28;20215;-76
2021/12/14 05:06:52;;;;;;;3.55;2.67;;;;;;;;;;5048791;28;20286;-75
2021/12/14 05:09:21;;;;;;;3.28;2.97;;;;;;;;;;5052635;28;20221;-75
2021/12/14 05:11:49;;;;;;;4.47;3.30;;;;;;;;;;5059785;28;20823;-77
2021/12/14 05:14:16;;;;;;;3.10;2.80;;;;;;;;;;5069223;28;20197;-77
2021/12/14 05:16:43;;;;;;;5.10;4.50;;;;;;;;;;5064209;28;20201;-76
2021/12/14 05:19:11;;;;;;;4.15;3.13;;;;;;;;;;5063188;28;20195;-76
2021/12/14 05:21:40;;;;;;;3.35;2.97;;;;;;;;;;5050992;28;20230;-75
2021/12/14 05:24:10;;;;;;;3.33;2.95;;;;;;;;;;5050817;28;20305;-75
2021/12/14 05:26:38;;;;;;;3.58;3.28;;;;;;;;;;5049337;28;20573;-75
2021/12/14 05:29:05;;;;;;;5.32;3.95;;;;;;;;;;5055550;28;20245;-76
2021/12/14 05:31:33;;;;;;;3.72;3.28;;;;;;;;;;5051705;28;20943;-76
2021/12/14 05:34:01;;;;;;;2.90;2.45;;;;;;;;;;5050753;28;20214;-76
2021/12/14 05:36:28;;;;;;;3.90;3.50;;;;;;;;;;5050148;28;20191;-76
2021/12/14 05:39:01;;;;;;;3.35;3.00;;;;;;;;;;5062711;28;20213;-76
2021/12/14 05:44:18;;;;;;;3.47;3.17;;;;;;;;;;5056787;28;20217;-76
2021/12/14 05:46:50;;;;;;;4.28;3.30;;;;;;;;;;5048277;28;20229;-76
2021/12/14 05:49:18;;;;;;;4.10;3.70;;;;;;;;;;5058381;28;20210;-76
2021/12/14 05:51:45;;;;;;;4.10;3.60;;;;;;;;;;5054416;28;20226;-76
2021/12/14 05:54:18;;;;;;;3.15;2.85;;;;;;;;;;5048756;28;20199;-76
2021/12/14 05:56:46;;;;;;;5.57;4.03;;;;;;;;;;5055894;28;20198;-76
2021/12/14 05:59:17;;;;;;;5.53;3.47;;;;;;;;;;5059102;28;20222;-76
2021/12/14 06:01:44;;;;;;;4.07;3.60;;;;;;;;;;5050992;28;20202;-76
2021/12/14 06:04:12;;;;;;;4.10;3.38;;;;;;;;;;5050555;28;20194;-76
2021/12/14 06:06:41;;;;;;;4.75;4.15;;;;;;;;;;5048612;28;20203;-75
2021/12/14 06:09:09;;;;;;;4.20;3.80;;;;;;;;;;5042091;28;20286;-76
2021/12/14 06:11:37;;;;;;;5.10;3.80;;;;;;;;;;5053339;28;20194;-76
2021/12/14 06:14:12;;;;;;;5.00;3.85;;;;;;;;;;5052044;28;20226;-76
2021/12/14 06:16:39;;;;;;;5.10;3.47;;;;;;;;;;5056403;28;20657;-75
2021/12/14 06:19:17;;;;;;;8.43;4.88;;;;;;;;;;5059145;28;20193;-75
2021/12/14 06:21:45;;;;;;;3.58;3.28;;;;;;;;;;5050650;28;20206;-75
2021/12/14 06:24:12;;;;;;;5.10;4.35;;;;;;;;;;5049335;28;20191;-75
2021/12/14 06:26:41;;;;;;;5.10;3.80;;;;;;;;;;5049687;28;20210;-76
2021/12/14 06:29:11;;;;;;;6.03;4.75;;;;;;;;;;5052094;28;20677;-76
2021/12/14 06:31:39;;;;;;;4.72;4.30;;;;;;;;;;5051216;28;20199;-76
2021/12/14 06:34:15;;;;;;;5.43;4.03;;;;;;;;;;5050202;28;20309;-76
2021/12/14 06:37:03;;;;;;;5.25;4.55;;;;;;;;;;5051935;28;20645;-75
2021/12/14 06:39:30;;;;;;;5.47;4.05;;;;;;;;;;5054779;28;20298;-75
2021/12/14 06:42:04;;;;;;;4.55;4.00;;;;;;;;;;5055945;28;20195;-76
2021/12/14 06:44:33;;;;;;;8.02;4.30;;;;;;;;;;5055789;28;20682;-76
2021/12/14 06:47:00;;;;;;;5.57;4.10;;;;;;;;;;5052681;28;20224;-79
2021/12/14 06:49:27;;;;;;;7.10;4.30;;;;;;;;;;5060167;28;20198;-77
2021/12/14 06:51:56;;;;;;;7.68;5.65;;;;;;;;;;5053812;28;20569;-78
2021/12/14 06:54:25;;;;;;;6.43;4.57;;;;;;;;;;5054613;28;20231;-77
2021/12/14 06:56:55;;;;;;;8.73;6.25;;;;;;;;;;5063806;28;20676;-77
2021/12/14 06:59:22;;;;;;;5.30;4.40;;;;;;;;;;5048685;28;21476;-82
2021/12/14 07:01:52;;;;;;;5.53;4.75;;;;;;;;;;5053562;28;20309;-82
2021/12/14 07:04:21;;;;;;;4.47;4.05;;;;;;;;;;5065114;28;20202;-82
2021/12/14 07:06:49;;;;;;;5.60;5.07;;;;;;;;;;5050566;28;20203;-82
2021/12/14 07:09:21;;;;;;;4.88;4.28;;;;;;;;;;5053380;28;20195;-82
2021/12/14 07:11:49;;;;;;;7.00;5.03;;;;;;;;;;5057271;28;20201;-78
2021/12/14 07:14:22;;;;;;;6.03;5.32;;;;;;;;;;5065573;28;20205;-78
2021/12/14 07:16:51;;;;;;;9.52;7.13;;;;;;;;;;5061264;28;20234;-77
2021/12/14 07:19:18;;;;;;;5.85;4.72;;;;;;;;;;5052124;28;20207;-78
2021/12/14 07:21:46;;;;;;;7.25;5.65;;;;;;;;;;5051391;28;20653;-78
2021/12/14 07:24:28;;;;;;;6.35;5.72;;;;;;;;;;5052977;28;20195;-77
2021/12/14 07:27:10;;;;;;;11.35;7.43;;;;;;;;;;5055732;28;20191;-78
2021/12/14 07:29:37;;;;;;;8.13;6.50;;;;;;;;;;5056591;28;20658;-78
2021/12/14 07:32:06;;;;;;;8.15;7.30;;;;;;;;;;5051379;28;20682;-80
2021/12/14 07:34:34;;;;;;;11.40;7.57;;;;;;;;;;5071677;28;20194;-78
2021/12/14 07:37:01;;;;;;;9.63;5.65;;;;;;;;;;5064786;28;20989;-79
2021/12/14 07:39:28;;;;;;;6.07;5.50;;;;;;;;;;5058210;28;20195;-78
2021/12/14 07:41:58;;;;;;;9.35;5.70;;;;;;;;;;5045447;28;20196;-77
2021/12/14 07:44:26;;;;;;;7.75;5.93;;;;;;;;;;5059938;28;20657;-77
2021/12/14 07:46:55;;;;;;;7.50;5.80;;;;;;;;;;5054471;28;20191;-77
2021/12/14 07:49:25;;;;;;;9.25;6.40;;;;;;;;;;5051833;28;20205;-79
2021/12/14 07:51:53;;;;;;;8.50;6.93;;;;;;;;;;5051850;28;20194;-77
2021/12/14 07:54:21;;;;;;;6.55;5.35;;;;;;;;;;5064184;28;20210;-78
2021/12/14 07:56:50;;;;;;;8.48;7.03;;;;;;;;;;5057404;28;20186;-78
2021/12/14 07:59:18;;;;;;;9.13;5.35;;;;;;;;;;5063396;28;20218;-77
2021/12/14 08:01:46;;;;;;;8.52;7.25;;;;;;;;;;5050604;28;20199;-79
2021/12/14 08:04:14;;;;;;;9.85;8.35;;;;;;;;;;5069455;28;20710;-78
2021/12/14 08:06:47;;;;;;;7.25;5.22;;;;;;;;;;5064765;28;20219;-78
2021/12/14 08:09:18;;;;;;;7.65;5.97;;;;;;;;;;5052852;28;20199;-78
2021/12/14 08:11:48;;;;;;;8.40;5.15;;;;;;;;;;5061673;28;20233;-81
2021/12/14 08:14:18;;;;;;;7.53;6.10;;;;;;;;;;5066131;28;20237;-81
2021/12/14 08:16:46;;;;;;;7.15;6.18;;;;;;;;;;5035509;28;20583;-81
2021/12/14 08:19:15;;;;;;;10.95;7.22;;;;;;;;;;5041622;28;20215;-81
2021/12/14 08:21:43;;;;;;;8.50;5.95;;;;;;;;;;5057349;28;20201;-82
2021/12/14 08:24:12;;;;;;;7.95;7.00;;;;;;;;;;5058603;28;20723;-82
2021/12/14 08:26:40;;;;;;;7.07;5.65;;;;;;;;;;5055135;28;20296;-82
2021/12/14 08:29:09;;;;;;;8.13;6.05;;;;;;;;;;5061924;28;20198;-79
2021/12/14 08:31:39;;;;;;;10.02;6.90;;;;;;;;;;5051328;28;20199;-85
2021/12/14 08:34:07;;;;;;;10.15;7.15;;;;;;;;;;5053740;28;20693;-84
2021/12/14 08:36:35;;;;;;;8.90;6.65;;;;;;;;;;5050042;28;20207;-83
2021/12/14 08:39:04;;;;;;;8.40;6.22;;;;;;;;;;5052421;28;20203;-84
2021/12/14 08:41:33;;;;;;;7.63;6.55;;;;;;;;;;5058963;28;20194;-85
2021/12/14 08:44:08;;;;;;;10.55;7.88;;;;;;;;;;5061018;28;20203;-84
2021/12/14 08:46:36;;;;;;;10.40;7.47;;;;;;;;;;5051596;28;20234;-81
2021/12/14 08:49:06;;;;;;;11.18;7.40;;;;;;;;;;5050713;28;20206;-82
2021/12/14 08:51:35;;;;;;;11.07;8.90;;;;;;;;;;5053868;28;20210;-81
2021/12/14 08:54:04;;;;;;;9.30;7.70;;;;;;;;;;5059756;28;20199;-82
2021/12/14 08:56:34;;;;;;;10.35;7.70;;;;;;;;;;5052052;28;20202;-82
2021/12/14 08:59:01;;;;;;;10.02;7.60;;;;;;;;;;5062189;28;21008;-82
2021/12/14 09:01:30;;;;;;;10.27;7.88;;;;;;;;;;5047821;28;20206;-81
2021/12/14 09:03:59;;;;;;;9.38;7.55;;;;;;;;;;5053941;28;20199;-82
2021/12/14 09:06:28;;;;;;;10.57;8.43;;;;;;;;;;5057426;28;20229;-82
2021/12/14 09:08:57;;;;;;;8.98;6.70;;;;;;;;;;5043415;28;20195;-82
2021/12/14 09:11:28;;;;;;;10.43;7.10;;;;;;;;;;5052400;28;20202;-82
2021/12/14 09:13:58;;;;;;;11.82;9.20;;;;;;;;;;5061078;28;20199;-86
2021/12/14 09:16:27;;;;;;;12.48;8.82;;;;;;;;;;5057261;28;20245;-85
2021/12/14 09:18:56;;;;;;;14.35;11.40;;;;;;;;;;5065527;28;20202;-82
2021/12/14 09:21:25;;;;;;;10.23;7.40;;;;;;;;;;5065548;28;20198;-86
2021/12/14 09:23:55;;;;;;;12.95;9.15;;;;;;;;;;5060920;28;20190;-87
2021/12/14 09:26:25;;;;;;;14.95;11.35;;;;;;;;;;5063407;28;20223;-88
2021/12/14 09:28:52;;;;;;;14.73;10.02;;;;;;;;;;5056125;28;20194;-84
2021/12/14 09:31:22;;;;;;;10.38;8.10;;;;;;;;;;5056578;28;20198;-82
2021/12/14 09:33:50;;;;;;;10.45;8.35;;;;;;;;;;5059740;28;20198;-82
2021/12/14 09:36:17;;;;;;;12.40;8.60;;;;;;;;;;5050989;28;20577;-80
2021/12/14 09:38:47;;;;;;;13.02;9.52;;;;;;;;;;5050199;28;20680;-78
2021/12/14 09:41:17;;;;;;;11.82;9.13;;;;;;;;;;5053707;28;20549;-78
2021/12/14 09:43:46;;;;;;;12.90;8.82;;;;;;;;;;5059587;28;20692;-78
2021/12/14 09:46:13;;;;;;;14.02;10.27;;;;;;;;;;5048622;28;20586;-78
2021/12/14 09:48:43;;;;;;;13.80;10.02;;;;;;;;;;5057687;28;20204;-78
2021/12/14 09:51:12;;;;;;;12.55;10.10;;;;;;;;;;5056260;28;20218;-78
2021/12/14 09:53:41;;;;;;;15.73;11.07;;;;;;;;;;5031463;28;20203;-78
2021/12/14 09:56:08;;;;;;;14.63;9.48;;;;;;;;;;5057644;28;20207;-78
2021/12/14 09:58:40;;;;;;;14.45;9.80;;;;;;;;;;5054081;28;20207;-78
2021/12/14 10:01:09;;;;;;;13.07;9.77;;;;;;;;;;5053098;28;20694;-78
2021/12/14 10:03:36;;;;;;;11.15;8.18;;;;;;;;;;5062198;28;20601;-77
2021/12/14 10:06:07;;;;;;;18.42;12.27;;;;;;;;;;5049799;28;20211;-78
2021/12/14 10:08:36;;;;;;;18.45;12.75;;;;;;;;;;5048524;28;20570;-78
2021/12/14 10:11:07;;;;;;;15.27;10.35;;;;;;;;;;5049604;28;20199;-78
2021/12/14 10:13:37;;;;;;;17.50;11.70;;;;;;;;;;5057204;28;20207;-78
2021/12/14 10:16:07;;;;;;;16.35;11.85;;;;;;;;;;5059367;28;20674;-78
2021/12/14 10:18:35;;;;;;;19.55;13.60;;;;;;;;;;5054218;28;20252;-77
2021/12/14 10:21:04;;;;;;;18.38;11.68;;;;;;;;;;5058300;28;20233;-78
2021/12/14 10:23:36;;;;;;;18.15;11.75;;;;;;;;;;5044390;28;20194;-77
2021/12/14 10:26:05;;;;;;;17.50;14.07;;;;;;;;;;5042351;28;20222;-77
2021/12/14 10:28:32;;;;;;;17.15;12.77;;;;;;;;;;5051662;28;20195;-78
2021/12/14 10:31:01;;;;;;;13.85;10.93;;;;;;;;;;5051564;28;20190;-77
2021/12/14 10:33:31;;;;;;;13.95;11.18;;;;;;;;;;5058391;28;20199;-78
2021/12/14 10:36:03;;;;;;;20.40;12.70;;;;;;;;;;5049933;28;20218;-78
2021/12/14 10:38:36;;;;;;;15.95;11.23;;;;;;;;;;5051347;28;20195;-77
2021/12/14 10:43:54;;;;;;;14.88;10.93;;;;;;;;;;5061978;28;20708;-78
2021/12/14 10:46:23;;;;;;;17.70;12.35;;;;;;;;;;5044188;28;20222;-80
2021/12/14 10:48:50;;;;;;;20.20;13.55;;;;;;;;;;5051098;28;20210;-78
2021/12/14 10:51:19;;;;;;;12.60;10.02;;;;;;;;;;5052029;28;20195;-79
2021/12/14 10:53:48;;;;;;;13.43;9.88;;;;;;;;;;5058154;28;20708;-77
2021/12/14 10:56:18;;;;;;;12.75;9.57;;;;;;;;;;5042807;28;20574;-77
2021/12/14 10:58:52;;;;;;;11.07;9.23;;;;;;;;;;5060458;28;20677;-77
2021/12/14 11:01:25;;;;;;;13.80;10.25;;;;;;;;;;5050532;28;20195;-77
2021/12/14 11:03:56;;;;;;;13.27;9.63;;;;;;;;;;5047287;28;20213;-77
2021/12/14 11:06:28;;;;;;;14.07;10.75;;;;;;;;;;5044505;28;20306;-78
2021/12/14 11:09:38;;;;;;;11.85;8.73;;;;;;;;;;5043639;28;20261;-78
2021/12/14 11:11:49;;;;;;;12.95;9.27;;;;;;;;;;5048107;28;20976;-81
2021/12/14 11:14:18;;;;;;;12.68;10.32;;;;;;;;;;5049655;28;20677;-81
2021/12/14 11:19:33;;;;;;;13.02;9.88;;;;;;;;;;5044142;28;20275;-79
2021/12/14 11:22:08;;;;;;;15.27;11.15;;;;;;;;;;5048282;28;20217;-78
2021/12/14 11:24:35;;;;;;;14.20;11.38;;;;;;;;;;5052686;28;20186;-73
2021/12/14 11:27:06;;;;;;;16.52;11.30;;;;;;;;;;5054707;28;20214;-78
2021/12/14 11:29:33;;;;;;;13.43;11.02;;;;;;;;;;5062379;28;20191;-77
2021/12/14 11:32:02;;;;;;;13.60;10.68;;;;;;;;;;5051761;28;20658;-80
2021/12/14 11:34:31;;;;;;;12.82;10.82;;;;;;;;;;5060226;28;20222;-77
2021/12/14 11:37:04;;;;;;;13.18;9.75;;;;;;;;;;5056952;28;20200;-77
2021/12/14 11:39:38;;;;;;;14.77;10.68;;;;;;;;;;5052276;28;20195;-76
2021/12/14 11:42:08;;;;;;;15.05;11.27;;;;;;;;;;5052334;28;20249;-76
2021/12/14 11:44:36;;;;;;;15.75;12.05;;;;;;;;;;5050244;28;20690;-76
2021/12/14 11:47:08;;;;;;;13.63;9.98;;;;;;;;;;5055485;28;20219;-77
2021/12/14 11:49:47;;;;;;;14.45;11.10;;;;;;;;;;5059251;28;20658;-76
2021/12/14 11:52:14;;;;;;;15.25;10.55;;;;;;;;;;5048618;28;20206;-76
2021/12/14 11:54:43;;;;;;;16.45;12.65;;;;;;;;;;5057626;28;20194;-77
2021/12/14 11:57:12;;;;;;;18.25;11.35;;;;;;;;;;5047249;28;20223;-75
2021/12/14 11:59:39;;;;;;;15.23;11.23;;;;;;;;;;5046685;28;20241;-76
2021/12/14 12:02:07;;;;;;;20.10;12.75;;;;;;;;;;5044582;28;20670;-76
2021/12/14 12:04:36;;;;;;;14.52;11.52;;;;;;;;;;5051418;28;20268;-77
2021/12/14 12:09:52;;;;;;;17.35;10.63;;;;;;;;;;5051526;28;20268;-77
2021/12/14 12:12:24;;;;;;;17.48;12.40;;;;;;;;;;5050488;28;20563;-77
2021/12/14 12:14:52;;;;;;;18.67;12.60;;;;;;;;;;5052599;28;20206;-76
2021/12/14 12:17:22;;;;;;;18.05;12.38;;;;;;;;;;5050510;28;20667;-77
2021/12/14 12:19:56;;;;;;;14.77;11.13;;;;;;;;;;5052276;28;20217;-76
2021/12/14 12:22:24;;;;;;;15.13;11.45;;;;;;;;;;5046484;28;20198;-77
2021/12/14 12:24:52;;;;;;;15.75;11.30;;;;;;;;;;5054011;28;20665;-76
2021/12/14 12:27:24;;;;;;;17.80;12.88;;;;;;;;;;5054437;28;20218;-76
2021/12/14 12:30:06;;;;;;;16.77;12.40;;;;;;;;;;5050890;28;20197;-77
2021/12/14 12:32:33;;;;;;;17.65;12.25;;;;;;;;;;5051776;28;20214;-76
2021/12/14 12:35:00;;;;;;;16.30;13.15;;;;;;;;;;5051426;28;20203;-77
2021/12/14 12:37:40;;;;;;;16.67;12.38;;;;;;;;;;5047529;28;20195;-78
2021/12/14 12:40:09;;;;;;;15.45;12.20;;;;;;;;;;5051836;28;20202;-79
2021/12/14 12:42:38;;;;;;;16.25;11.50;;;;;;;;;;5053344;28;20238;-77
2021/12/14 12:45:06;;;;;;;15.27;12.82;;;;;;;;;;5060007;28;20238;-78
2021/12/14 12:47:35;;;;;;;14.88;13.00;;;;;;;;;;5049607;28;20219;-79
2021/12/14 12:50:02;;;;;;;18.98;12.93;;;;;;;;;;5051617;28;20651;-77
2021/12/14 12:52:31;;;;;;;16.92;11.38;;;;;;;;;;5041106;28;20578;-78
2021/12/14 12:55:01;;;;;;;14.93;12.07;;;;;;;;;;5051434;28;20662;-78
2021/12/14 12:57:33;;;;;;;18.67;13.23;;;;;;;;;;5048245;28;20186;-78
2021/12/14 13:00:09;;;;;;;17.90;12.85;;;;;;;;;;5046847;28;20219;-79
2021/12/14 13:02:37;;;;;;;16.50;12.50;;;;;;;;;;5057684;28;20255;-78
2021/12/14 13:05:06;;;;;;;20.70;14.02;;;;;;;;;;5050907;28;20210;-78
2021/12/14 13:07:37;;;;;;;18.20;13.23;;;;;;;;;;5045175;28;20243;-79
2021/12/14 13:10:13;;;;;;;22.85;13.07;;;;;;;;;;5050226;28;20677;-77
2021/12/14 13:12:42;;;;;;;18.45;13.38;;;;;;;;;;5049550;28;20210;-78
2021/12/14 13:15:24;;;;;;;16.45;12.73;;;;;;;;;;5050715;28;20203;-79
2021/12/14 13:18:12;;;;;;;21.08;15.10;;;;;;;;;;5050432;28;20566;-78
2021/12/14 13:20:39;;;;;;;21.30;14.70;;;;;;;;;;5047396;28;20202;-79
2021/12/14 13:23:06;;;;;;;24.38;15.75;;;;;;;;;;5043862;28;20625;-77
2021/12/14 13:25:34;;;;;;;20.10;14.63;;;;;;;;;;5056030;28;20202;-77
2021/12/14 13:28:02;;;;;;;18.27;13.85;;;;;;;;;;5047254;28;20222;-76
2021/12/14 13:30:30;;;;;;;20.15;14.98;;;;;;;;;;5050348;28;20198;-76
2021/12/14 13:32:59;;;;;;;20.00;13.98;;;;;;;;;;5048536;28;20206;-78
2021/12/14 13:35:28;;;;;;;20.80;14.05;;;;;;;;;;5052289;28;20228;-77
2021/12/14 13:37:58;;;;;;;23.42;17.98;;;;;;;;;;5047687;28;22159;-77
2021/12/14 13:40:27;;;;;;;22.85;16.40;;;;;;;;;;5051866;28;20211;-76
2021/12/14 13:42:58;;;;;;;19.42;14.38;;;;;;;;;;5048606;28;20644;-76
2021/12/14 13:45:26;;;;;;;25.95;16.63;;;;;;;;;;5051302;28;20223;-77
2021/12/14 13:47:53;;;;;;;21.20;14.55;;;;;;;;;;5044889;28;20211;-77
2021/12/14 13:50:24;;;;;;;24.15;14.75;;;;;;;;;;5050958;28;20236;-78
2021/12/14 13:52:52;;;;;;;22.55;15.30;;;;;;;;;;5054586;28;20198;-77
2021/12/14 13:55:31;;;;;;;25.40;14.40;;;;;;;;;;5053432;28;20297;-77
2021/12/14 13:58:01;;;;;;;23.98;15.48;;;;;;;;;;5047501;28;20206;-77
2021/12/14 14:00:30;;;;;;;21.73;15.63;;;;;;;;;;5051036;28;20755;-77
2021/12/14 14:02:58;;;;;;;21.30;16.08;;;;;;;;;;5048943;28;20968;-78
2021/12/14 14:05:27;;;;;;;24.13;16.58;;;;;;;;;;5052636;28;20195;-77
2021/12/14 14:07:56;;;;;;;24.02;17.52;;;;;;;;;;5040144;28;20219;-77
2021/12/14 14:10:23;;;;;;;23.58;16.30;;;;;;;;;;5049122;28;20194;-78
2021/12/14 14:12:52;;;;;;;24.35;17.60;;;;;;;;;;5059941;28;20202;-76
2021/12/14 14:15:21;;;;;;;25.00;16.98;;;;;;;;;;5049170;28;20669;-77
2021/12/14 14:17:50;;;;;;;27.33;17.60;;;;;;;;;;5053569;28;20203;-76
2021/12/14 14:20:19;;;;;;;25.80;18.05;;;;;;;;;;5050844;28;20209;-77
2021/12/14 14:22:47;;;;;;;23.73;16.85;;;;;;;;;;5053091;28;20686;-76
2021/12/14 14:25:17;;;;;;;23.88;16.35;;;;;;;;;;5046633;28;20202;-78
2021/12/14 14:27:46;;;;;;;25.60;17.35;;;;;;;;;;5047005;28;20217;-78
2021/12/14 14:30:32;;;;;;;22.42;16.17;;;;;;;;;;5047034;28;20195;-76
2021/12/14 14:33:00;;;;;;;23.85;16.85;;;;;;;;;;5053375;28;20213;-77
2021/12/14 14:35:40;;;;;;;22.77;16.98;;;;;;;;;;5056925;28;20727;-76
2021/12/14 14:38:22;;;;;;;25.83;17.70;;;;;;;;;;5045987;28;20198;-77
2021/12/14 14:40:51;;;;;;;24.75;17.25;;;;;;;;;;5040871;28;20593;-77
2021/12/14 14:43:18;;;;;;;25.23;17.52;;;;;;;;;;5052856;28;20202;-77
2021/12/14 14:45:45;;;;;;;28.20;18.65;;;;;;;;;;5049914;28;20205;-77
2021/12/14 14:48:18;;;;;;;27.00;18.10;;;;;;;;;;5051315;28;20211;-77
2021/12/14 14:50:45;;;;;;;19.95;15.85;;;;;;;;;;5049592;28;20179;-77
2021/12/14 14:53:15;;;;;;;27.85;17.90;;;;;;;;;;5048397;28;20207;-77
2021/12/14 14:55:45;;;;;;;25.02;18.20;;;;;;;;;;5050048;28;20194;-78
2021/12/14 14:58:15;;;;;;;29.35;18.92;;;;;;;;;;5053113;28;20217;-77
2021/12/14 15:00:44;;;;;;;24.08;17.90;;;;;;;;;;5056213;28;20685;-78
2021/12/14 15:03:19;;;;;;;23.95;16.02;;;;;;;;;;5066889;28;20687;-78
2021/12/14 15:05:49;;;;;;;23.67;17.02;;;;;;;;;;5054670;28;20198;-77
2021/12/14 15:08:22;;;;;;;23.83;16.20;;;;;;;;;;5050888;28;20324;-77
2021/12/14 15:10:52;;;;;;;20.58;15.75;;;;;;;;;;5050018;28;20678;-76